Time;durP1;ratioP1;P1;durP2;ratioP2;P2;SDS_P1;SDS_P2;PMS_P1;PMS_P2;Temp;Humidity;BMP_temperature;BMP_pressure;BME280_temperature;BME280_humidity;BME280_pressure;Samples;Min_cycle;Max_cycle;Signal;HPM_P1;HPM_P2
2021/06/04 00:01:43;;;;;;;3.67;2.62;;;;;;;14.75;50.60;97301.65;1758905;80;20961;-77
2021/06/04 00:04:09;;;;;;;3.55;2.72;;;;;;;14.78;50.31;97303.89;1764112;80;20985;-77
2021/06/04 00:06:35;;;;;;;3.33;2.60;;;;;;;14.80;50.22;97306.31;1764181;80;20966;-77
2021/06/04 00:09:01;;;;;;;3.70;2.50;;;;;;;14.80;50.31;97305.81;1764451;80;21016;-77
2021/06/04 00:11:35;;;;;;;3.52;2.62;;;;;;;14.79;50.22;97312.05;1756873;80;21033;-77
2021/06/04 00:14:14;;;;;;;4.25;2.58;;;;;;;14.79;50.37;97298.97;1747015;80;20988;-77
2021/06/04 00:16:49;;;;;;;5.05;2.67;;;;;;;14.77;50.05;97297.04;1757696;80;20928;-77
2021/06/04 00:19:17;;;;;;;3.25;2.58;;;;;;;14.78;49.82;97299.97;1754898;80;21334;-77
2021/06/04 00:21:47;;;;;;;3.00;2.47;;;;;;;14.82;49.72;97301.73;1753496;80;21234;-77
2021/06/04 00:24:13;;;;;;;4.03;2.75;;;;;;;14.83;49.49;97302.05;1748782;80;21006;-76
2021/06/04 00:26:42;;;;;;;2.83;2.60;;;;;;;14.84;49.84;97295.81;1750615;80;20960;-77
2021/06/04 00:29:08;;;;;;;2.75;2.55;;;;;;;14.83;49.68;97295.01;1754265;80;20980;-77
2021/06/04 00:31:34;;;;;;;4.03;2.52;;;;;;;14.83;49.17;97296.31;1749477;80;21310;-77
2021/06/04 00:33:59;;;;;;;3.40;2.42;;;;;;;14.86;49.74;97293.32;1762113;80;20995;-77
2021/06/04 00:36:25;;;;;;;3.58;2.65;;;;;;;14.88;49.25;97299.67;1744351;80;20908;-77
2021/06/04 00:38:53;;;;;;;6.92;2.70;;;;;;;14.86;49.60;97303.79;1752179;80;20929;-77
2021/06/04 00:41:27;;;;;;;3.58;2.72;;;;;;;14.86;48.85;97305.09;1745392;80;20980;-77
2021/06/04 00:43:53;;;;;;;5.35;3.95;;;;;;;14.85;51.98;97303.48;1754851;80;21311;-76
2021/06/04 00:46:19;;;;;;;5.28;4.37;;;;;;;14.73;51.40;97307.56;1753969;80;21016;-76
2021/06/04 00:48:44;;;;;;;5.95;4.62;;;;;;;14.57;51.06;97307.79;1754411;80;21043;-77
2021/06/04 00:51:18;;;;;;;5.60;4.40;;;;;;;14.39;51.59;97312.89;1757071;80;21273;-77
2021/06/04 00:53:44;;;;;;;4.90;3.50;;;;;;;14.26;51.91;97309.30;1751978;80;21031;-77
2021/06/04 00:56:10;;;;;;;4.55;3.40;;;;;;;14.17;52.74;97305.17;1755166;80;21246;-77
2021/06/04 00:58:41;;;;;;;4.65;3.62;;;;;;;14.07;52.87;97311.47;1762327;80;20992;-77
2021/06/04 01:01:07;;;;;;;6.05;3.70;;;;;;;13.99;52.90;97304.20;1743255;80;20982;-77
2021/06/04 01:03:35;;;;;;;5.05;3.40;;;;;;;13.90;53.74;97304.81;1743592;80;20960;-76
2021/06/04 01:06:33;;;;;;;5.20;3.70;;;;;;;13.81;53.67;97307.98;1753126;80;20955;-77
2021/06/04 01:09:23;;;;;;;5.80;4.00;;;;;;;13.74;54.26;97303.67;1731041;80;20924;-77
2021/06/04 01:12:15;;;;;;;5.17;3.30;;;;;;;13.61;54.06;97308.20;1766750;80;20963;-77
2021/06/04 01:15:11;;;;;;;4.12;3.10;;;;;;;13.49;54.60;97305.69;1768392;80;21000;-77
2021/06/04 01:17:58;;;;;;;5.17;3.75;;;;;;;13.35;55.02;97308.61;1766998;80;20941;-77
2021/06/04 01:20:33;;;;;;;4.42;3.35;;;;;;;13.24;55.06;97308.21;1761532;80;21366;-77
2021/06/04 01:23:25;;;;;;;4.33;3.65;;;;;;;13.14;55.13;97314.44;1768075;80;21301;-77
2021/06/04 01:25:57;;;;;;;;;;;;;;;13.05;55.58;97307.67;1764525;80;20992;-78
2021/06/04 01:28:31;;;;;;;4.28;3.37;;;;;;;12.93;55.83;97311.17;1764405;80;20151;-78
2021/06/04 01:31:23;;;;;;;5.65;3.12;;;;;;;12.83;56.16;97307.97;1777238;80;20977;-78
2021/06/04 01:33:58;;;;;;;4.42;3.35;;;;;;;12.73;56.42;97312.61;1774018;80;21004;-78
2021/06/04 01:36:28;;;;;;;4.83;3.58;;;;;;;12.61;56.78;97314.79;1763401;80;20992;-78
2021/06/04 01:38:56;;;;;;;4.83;3.77;;;;;;;12.53;57.61;97313.55;1764240;80;21026;-78
2021/06/04 01:41:23;;;;;;;4.75;3.52;;;;;;;12.45;57.74;97303.15;1773754;80;21321;-78
2021/06/04 01:43:54;;;;;;;4.87;3.67;;;;;;;12.38;58.13;97308.73;1770648;80;21951;-77
2021/06/04 01:46:27;;;;;;;4.53;3.30;;;;;;;12.33;58.84;97307.92;1772979;80;20992;-77
2021/06/04 01:48:52;;;;;;;5.53;3.33;;;;;;;12.27;59.22;97307.80;1765140;80;20968;-77
2021/06/04 01:51:31;;;;;;;8.70;4.25;;;;;;;12.23;59.92;97312.55;1771380;80;21317;-76
2021/06/04 01:54:01;;;;;;;4.22;3.20;;;;;;;12.18;60.28;97302.28;1761816;80;20980;-77
2021/06/04 01:56:32;;;;;;;4.83;3.08;;;;;;;12.12;60.10;97305.08;1770229;80;21019;-76
2021/06/04 01:59:21;;;;;;;4.42;2.90;;;;;;;12.10;60.12;97309.66;1761833;80;21006;-77
2021/06/04 02:01:49;;;;;;;6.65;3.15;;;;;;;12.10;60.34;97306.23;1748096;80;21004;-77
2021/06/04 02:04:20;;;;;;;3.25;2.55;;;;;;;12.08;60.22;97307.71;1762275;80;20936;-76
2021/06/04 02:06:47;;;;;;;;;;;;;;;12.06;60.08;97304.95;1767014;80;21053;-77
2021/06/04 02:09:15;;;;;;;2.98;2.37;;;;;;;12.02;60.09;97313.58;1763404;80;20120;-76
2021/06/04 02:11:41;;;;;;;15.50;4.60;;;;;;;11.97;60.08;97307.58;1758703;80;20959;-76
2021/06/04 02:14:09;;;;;;;3.80;2.87;;;;;;;11.94;60.50;97305.31;1751563;80;20921;-77
2021/06/04 02:16:46;;;;;;;5.03;3.10;;;;;;;11.88;60.91;97305.98;1762511;80;20894;-77
2021/06/04 02:19:30;;;;;;;4.85;3.22;;;;;;;11.84;60.64;97305.98;1767464;80;21317;-77
2021/06/04 02:22:09;;;;;;;3.52;2.62;;;;;;;11.78;60.32;97306.62;1762522;80;20947;-76
2021/06/04 02:24:43;;;;;;;3.98;2.67;;;;;;;11.73;60.38;97303.22;1750693;80;20976;-77
2021/06/04 02:27:26;;;;;;;4.58;2.67;;;;;;;11.70;60.08;97303.53;1746247;80;20996;-76
2021/06/04 02:30:06;;;;;;;3.15;2.50;;;;;;;11.62;60.38;97304.86;1756412;80;21267;-77
2021/06/04 02:32:40;;;;;;;5.35;2.72;;;;;;;11.60;60.17;97307.31;1748102;80;21052;-76
2021/06/04 02:35:17;;;;;;;3.65;2.83;;;;;;;11.57;60.33;97308.95;1756583;80;21040;-77
2021/06/04 02:37:48;;;;;;;3.58;2.42;;;;;;;11.54;60.85;97307.95;1748426;80;20952;-76
2021/06/04 02:40:28;;;;;;;4.90;3.52;;;;;;;11.50;60.84;97307.97;1754984;80;20921;-76
2021/06/04 02:42:59;;;;;;;2.92;2.22;;;;;;;11.49;60.63;97308.95;1756902;80;20955;-77
2021/06/04 02:45:35;;;;;;;2.92;2.62;;;;;;;11.45;60.69;97304.56;1753757;80;21257;-76
2021/06/04 02:48:09;;;;;;;2.87;2.47;;;;;;;11.42;60.62;97307.02;1753731;80;20920;-77
2021/06/04 02:50:43;;;;;;;3.83;2.60;;;;;;;11.39;60.73;97302.63;1756642;80;20892;-76
2021/06/04 02:53:29;;;;;;;3.85;2.85;;;;;;;11.41;61.03;97307.18;1758974;80;21274;-77
2021/06/04 02:56:31;;;;;;;4.62;2.47;;;;;;;11.43;61.04;97306.03;1755842;80;20928;-77
2021/06/04 02:59:03;;;;;;;;;;;;;;;11.46;61.50;97304.89;1758884;80;20893;-77
2021/06/04 03:01:31;;;;;;;3.45;2.45;;;;;;;11.47;62.54;97307.81;1750565;80;20114;-76
2021/06/04 03:03:59;;;;;;;3.42;2.67;;;;;;;11.48;62.30;97306.02;1749094;80;21097;-76
2021/06/04 03:06:30;;;;;;;3.20;2.90;;;;;;;11.48;61.75;97313.34;1750197;80;20984;-76
2021/06/04 03:09:00;;;;;;;4.00;2.95;;;;;;;11.50;61.70;97311.38;1759114;80;21337;-76
2021/06/04 03:11:24;;;;;;;3.50;2.67;;;;;;;11.50;61.34;97313.98;1766579;80;20992;-76
2021/06/04 03:13:50;;;;;;;3.05;2.67;;;;;;;11.51;61.27;97314.80;1758769;80;20937;-77
2021/06/04 03:16:21;;;;;;;4.62;2.60;;;;;;;11.48;61.38;97318.55;1753837;80;20905;-77
2021/06/04 03:18:52;;;;;;;3.90;2.77;;;;;;;11.48;61.74;97315.12;1752757;80;20996;-77
2021/06/04 03:21:26;;;;;;;3.85;2.90;;;;;;;11.47;62.50;97312.20;1752051;80;21059;-78
2021/06/04 03:23:52;;;;;;;3.70;3.27;;;;;;;11.44;62.64;97315.95;1770462;80;21030;-78
2021/06/04 03:26:22;;;;;;;3.65;2.87;;;;;;;11.43;62.81;97312.55;1743765;80;20961;-78
2021/06/04 03:28:50;;;;;;;4.80;2.55;;;;;;;11.45;63.01;97308.47;1750288;80;20956;-78
2021/06/04 03:31:17;;;;;;;5.22;3.25;;;;;;;11.49;63.11;97308.95;1761214;80;21297;-78
2021/06/04 03:33:43;;;;;;;2.90;2.60;;;;;;;11.51;62.77;97309.10;1766073;80;20902;-78
2021/06/04 03:36:17;;;;;;;4.17;2.98;;;;;;;11.54;63.12;97314.46;1759283;80;20908;-78
2021/06/04 03:38:44;;;;;;;3.02;2.65;;;;;;;11.55;63.26;97316.93;1757612;80;20959;-78
2021/06/04 03:41:12;;;;;;;3.17;2.87;;;;;;;11.56;63.10;97316.44;1753645;80;20937;-78
2021/06/04 03:43:38;;;;;;;4.22;3.20;;;;;;;11.57;63.32;97314.16;1753985;80;20921;-78
2021/06/04 03:46:03;;;;;;;5.85;3.30;;;;;;;11.58;63.23;97317.08;1755851;80;20995;-78
2021/06/04 03:48:32;;;;;;;2.98;2.67;;;;;;;11.58;62.89;97311.88;1759987;80;20992;-78
2021/06/04 03:50:59;;;;;;;3.60;2.45;;;;;;;11.57;62.89;97311.55;1762475;80;21014;-78
2021/06/04 03:53:29;;;;;;;3.90;2.65;;;;;;;11.56;62.94;97312.53;1761455;80;21001;-78
2021/06/04 03:55:55;;;;;;;3.15;2.85;;;;;;;11.54;63.03;97315.27;1756982;80;21024;-78
2021/06/04 03:58:21;;;;;;;5.12;3.02;;;;;;;11.52;63.07;97317.23;1766829;80;21372;-78
2021/06/04 04:00:54;;;;;;;4.08;2.72;;;;;;;11.53;63.24;97313.65;1751758;80;20977;-78
2021/06/04 04:03:22;;;;;;;3.08;2.80;;;;;;;11.56;63.02;97311.23;1763308;80;21262;-78
2021/06/04 04:05:49;;;;;;;3.85;3.15;;;;;;;11.58;63.27;97309.28;1760659;80;21014;-78
2021/06/04 04:08:17;;;;;;;3.08;2.77;;;;;;;11.63;63.25;97313.48;1751625;80;21082;-77
2021/06/04 04:10:43;;;;;;;2.72;2.52;;;;;;;11.67;63.33;97319.98;1747626;80;20972;-78
2021/06/04 04:13:13;;;;;;;4.35;2.80;;;;;;;11.70;63.52;97319.64;1743748;80;21368;-78
2021/06/04 04:15:38;;;;;;;5.60;2.70;;;;;;;11.70;63.94;97318.34;1751143;80;20996;-78
2021/06/04 04:18:04;;;;;;;4.17;2.80;;;;;;;11.68;63.84;97317.70;1756014;80;20924;-78
2021/06/04 04:20:36;;;;;;;4.80;2.77;;;;;;;11.70;63.70;97317.04;1760383;80;21238;-78
2021/06/04 04:23:04;;;;;;;3.25;2.70;;;;;;;11.71;64.13;97320.80;1763643;80;21064;-78
2021/06/04 04:25:32;;;;;;;3.58;2.72;;;;;;;11.72;64.25;97315.92;1752514;80;20981;-78
2021/06/04 04:27:58;;;;;;;3.98;3.17;;;;;;;11.72;64.45;97317.72;1761399;80;20917;-78
2021/06/04 04:30:24;;;;;;;3.05;2.72;;;;;;;11.73;64.64;97318.03;1756569;80;20941;-78
2021/06/04 04:32:50;;;;;;;3.70;2.75;;;;;;;11.76;64.94;97317.70;1761548;80;20933;-78
2021/06/04 04:35:23;;;;;;;2.70;2.42;;;;;;;11.78;64.80;97319.64;1758681;80;21264;-78
2021/06/04 04:37:49;;;;;;;4.45;2.70;;;;;;;11.84;64.58;97317.70;1759700;80;20940;-78
2021/06/04 04:40:16;;;;;;;4.50;2.65;;;;;;;11.87;64.76;97320.45;1758040;80;20949;-78
2021/06/04 04:42:42;;;;;;;3.15;2.55;;;;;;;11.89;64.53;97321.94;1755481;80;21314;-78
2021/06/04 04:45:10;;;;;;;5.00;3.20;;;;;;;11.94;65.06;97325.33;1760376;80;20916;-78
2021/06/04 04:47:36;;;;;;;3.37;2.58;;;;;;;11.95;65.57;97328.26;1755355;80;21292;-79
2021/06/04 04:50:03;;;;;;;3.17;2.87;;;;;;;11.96;65.64;97325.48;1748444;80;20965;-78
2021/06/04 04:52:29;;;;;;;3.95;2.92;;;;;;;11.96;65.69;97321.58;1754232;80;20913;-78
2021/06/04 04:54:55;;;;;;;3.27;2.85;;;;;;;11.98;65.64;97323.52;1756319;80;21034;-78
2021/06/04 04:57:22;;;;;;;3.15;2.62;;;;;;;12.06;65.85;97317.49;1758002;80;21211;-78
2021/06/04 04:59:48;;;;;;;3.40;2.60;;;;;;;12.11;66.23;97321.70;1752092;80;21003;-78
2021/06/04 05:02:14;;;;;;;5.00;2.92;;;;;;;12.19;66.11;97320.84;1739813;80;20944;-78
2021/06/04 05:04:39;;;;;;;3.40;3.10;;;;;;;12.25;66.22;97327.52;1748548;80;20988;-78
2021/06/04 05:07:06;;;;;;;3.30;2.70;;;;;;;12.32;66.69;97323.73;1749474;80;20933;-78
2021/06/04 05:09:32;;;;;;;4.42;2.98;;;;;;;12.34;66.40;97326.97;1741935;80;20925;-78
2021/06/04 05:11:57;;;;;;;4.20;3.00;;;;;;;12.39;66.88;97332.52;1761776;80;20964;-78
2021/06/04 05:14:23;;;;;;;3.52;3.02;;;;;;;12.41;66.57;97335.75;1775030;80;21258;-78
2021/06/04 05:16:49;;;;;;;2.90;2.50;;;;;;;12.46;66.98;97337.35;1758667;80;20988;-78
2021/06/04 05:19:15;;;;;;;4.72;2.72;;;;;;;12.51;67.38;97330.31;1775353;80;20881;-78
2021/06/04 05:21:40;;;;;;;4.40;2.58;;;;;;;12.57;67.60;97336.98;1763536;80;20905;-78
2021/06/04 05:24:07;;;;;;;3.92;3.00;;;;;;;12.68;68.00;97328.44;1768086;80;20988;-78
2021/06/04 05:26:33;;;;;;;3.10;2.85;;;;;;;12.75;67.50;97331.51;1773373;80;20932;-78
2021/06/04 05:28:59;;;;;;;4.28;3.33;;;;;;;12.83;67.84;97336.66;1758885;81;20944;-78
2021/06/04 05:31:25;;;;;;;3.80;2.52;;;;;;;12.90;67.52;97335.49;1758144;81;21340;-78
2021/06/04 05:33:52;;;;;;;3.95;2.87;;;;;;;13.01;67.67;97337.69;1771124;81;21023;-76
2021/06/04 05:36:24;;;;;;;3.50;3.20;;;;;;;13.10;67.89;97345.78;1780180;80;20948;-76
2021/06/04 05:38:49;;;;;;;4.05;2.52;;;;;;;13.17;68.05;97341.48;1774258;80;21357;-77
2021/06/04 05:41:18;;;;;;;4.65;2.85;;;;;;;13.27;68.08;97343.09;1773647;80;21004;-76
2021/06/04 05:43:44;;;;;;;3.58;2.90;;;;;;;13.36;68.04;97342.05;1767262;81;21011;-77
2021/06/04 05:46:13;;;;;;;5.03;2.92;;;;;;;13.47;68.14;97338.51;1778268;80;20965;-76
2021/06/04 05:48:39;;;;;;;3.80;3.08;;;;;;;13.53;67.82;97337.50;1777170;81;21006;-76
2021/06/04 05:51:10;;;;;;;3.47;3.17;;;;;;;13.60;67.83;97338.41;1778206;80;20965;-77
2021/06/04 05:53:37;;;;;;;4.97;3.17;;;;;;;13.65;68.27;97339.48;1760139;80;20999;-76
2021/06/04 05:56:04;;;;;;;5.00;3.67;;;;;;;13.75;68.08;97340.55;1773209;81;20975;-76
2021/06/04 05:58:30;;;;;;;5.00;3.98;;;;;;;13.84;67.77;97342.11;1767379;81;21051;-76
2021/06/04 06:00:58;;;;;;;3.98;3.58;;;;;;;13.95;67.32;97336.92;1752189;81;21280;-77
2021/06/04 06:03:28;;;;;;;5.05;3.75;;;;;;;14.07;67.11;97341.53;1759040;80;20916;-76
2021/06/04 06:05:54;;;;;;;6.75;4.65;;;;;;;14.11;67.09;97345.39;1767303;80;20944;-77
2021/06/04 06:08:21;;;;;;;4.92;3.95;;;;;;;14.18;66.56;97346.81;1758026;80;21008;-77
2021/06/04 06:10:47;;;;;;;7.78;4.72;;;;;;;14.29;67.49;97343.72;1761426;80;21301;-79
2021/06/04 06:13:13;;;;;;;5.22;4.10;;;;;;;14.34;67.27;97350.55;1769685;80;21009;-77
2021/06/04 06:15:39;;;;;;;7.67;4.80;;;;;;;14.40;67.13;97349.00;1759615;80;20971;-77
2021/06/04 06:18:07;;;;;;;6.70;4.83;;;;;;;14.51;65.75;97351.69;1764766;80;20929;-77
2021/06/04 06:20:36;;;;;;;4.97;4.47;;;;;;;14.67;65.93;97347.55;1758042;80;20940;-77
2021/06/04 06:23:02;;;;;;;5.95;4.62;;;;;;;14.80;65.98;97348.17;1760611;80;20972;-77
2021/06/04 06:25:36;;;;;;;7.00;4.72;;;;;;;14.88;66.22;97350.20;1761452;80;21345;-76
2021/06/04 06:28:02;;;;;;;7.75;4.42;;;;;;;15.00;65.65;97352.66;1752921;80;20929;-77
2021/06/04 06:30:29;;;;;;;6.20;4.65;;;;;;;15.15;65.63;97347.37;1755803;80;21000;-77
2021/06/04 06:32:55;;;;;;;4.08;3.70;;;;;;;15.29;64.81;97349.58;1767090;80;21021;-77
2021/06/04 06:35:29;;;;;;;6.22;4.80;;;;;;;15.37;65.64;97352.09;1751985;80;21007;-76
2021/06/04 06:37:54;;;;;;;7.55;4.78;;;;;;;15.48;64.42;97354.21;1757163;80;21289;-77
2021/06/04 06:40:20;;;;;;;6.25;4.40;;;;;;;15.62;64.49;97357.78;1766908;80;20905;-76
2021/06/04 06:42:46;;;;;;;8.48;5.80;;;;;;;15.75;64.51;97355.24;1756991;80;20964;-76
2021/06/04 06:45:14;;;;;;;7.12;5.78;;;;;;;15.87;63.84;97368.64;1760999;80;20983;-78
2021/06/04 06:47:40;;;;;;;6.60;5.42;;;;;;;15.99;63.44;97357.95;1769505;80;20964;-78
2021/06/04 06:50:09;;;;;;;9.58;5.33;;;;;;;16.11;62.64;97362.97;1765951;80;21320;-78
2021/06/04 06:52:35;;;;;;;7.22;5.15;;;;;;;16.22;63.24;97356.36;1754937;80;21215;-78
2021/06/04 06:55:01;;;;;;;7.35;5.47;;;;;;;16.35;62.72;97360.88;1758278;81;21013;-76
2021/06/04 06:57:27;;;;;;;5.28;4.62;;;;;;;16.50;62.35;97364.98;1756769;80;21285;-76
2021/06/04 06:59:52;;;;;;;8.58;5.95;;;;;;;16.65;62.47;97363.54;1758851;80;21012;-76
2021/06/04 07:02:22;;;;;;;7.35;5.10;;;;;;;16.78;60.94;97364.13;1764549;80;20971;-76
2021/06/04 07:04:53;;;;;;;5.85;4.80;;;;;;;16.93;61.33;97359.53;1743260;80;22165;-76
2021/06/04 07:07:21;;;;;;;9.40;6.05;;;;;;;17.04;62.25;97359.44;1761797;81;21019;-76
2021/06/04 07:09:47;;;;;;;10.35;6.35;;;;;;;17.15;60.47;97362.00;1767602;80;20944;-76
2021/06/04 07:12:14;;;;;;;6.65;5.50;;;;;;;17.26;60.35;97362.23;1760958;80;20996;-76
2021/06/04 07:14:40;;;;;;;7.95;5.80;;;;;;;17.38;59.84;97358.48;1766199;80;20979;-78
2021/06/04 07:17:06;;;;;;;6.70;4.90;;;;;;;17.51;59.38;97357.70;1763024;80;20986;-77
2021/06/04 07:19:34;;;;;;;9.03;5.28;;;;;;;17.64;58.79;97359.83;1771754;81;20928;-77
2021/06/04 07:22:01;;;;;;;9.45;6.42;;;;;;;17.75;58.76;97358.95;1767089;80;20979;-76
2021/06/04 07:24:29;;;;;;;9.40;6.10;;;;;;;17.83;58.51;97362.17;1761527;80;20996;-77
2021/06/04 07:26:56;;;;;;;5.70;4.55;;;;;;;17.92;58.39;97356.21;1770287;81;20964;-77
2021/06/04 07:29:23;;;;;;;6.62;5.08;;;;;;;18.02;58.05;97357.09;1763381;80;21313;-77
2021/06/04 07:31:49;;;;;;;7.55;6.83;;;;;;;18.12;57.84;97362.75;1769922;81;20917;-77
2021/06/04 07:34:15;;;;;;;8.43;5.62;;;;;;;18.20;57.63;97354.12;1766697;80;20949;-76
2021/06/04 07:36:49;;;;;;;7.30;5.35;;;;;;;18.28;56.94;97358.36;1773585;80;20944;-76
2021/06/04 07:39:25;;;;;;;6.67;5.72;;;;;;;18.36;57.29;97362.07;1762077;80;20968;-75
2021/06/04 07:41:51;;;;;;;9.48;5.62;;;;;;;18.43;57.02;97362.07;1746048;81;21036;-75
2021/06/04 07:44:17;;;;;;;7.60;5.78;;;;;;;18.50;57.79;97365.47;1765163;80;21330;-77
2021/06/04 07:46:43;;;;;;;6.40;4.95;;;;;;;18.58;56.93;97367.38;1759933;81;20960;-77
2021/06/04 07:49:10;;;;;;;7.45;5.90;;;;;;;18.63;58.01;97360.68;1759814;80;20960;-78
2021/06/04 07:51:45;;;;;;;10.75;6.00;;;;;;;18.66;57.62;97356.34;1769417;81;20920;-77
2021/06/04 07:54:20;;;;;;;6.67;5.25;;;;;;;18.71;56.44;97359.14;1765969;80;20984;-76
2021/06/04 07:56:50;;;;;;;7.83;5.65;;;;;;;18.77;56.91;97355.69;1750516;81;20960;-75
2021/06/04 07:59:28;;;;;;;7.87;5.03;;;;;;;18.84;57.70;97355.95;1745269;81;20983;-76
2021/06/04 08:01:54;;;;;;;6.58;5.22;;;;;;;18.93;56.44;97349.13;1746892;81;20921;-75
2021/06/04 08:04:20;;;;;;;6.22;5.30;;;;;;;19.07;56.71;97344.09;1764044;81;20947;-75
2021/06/04 08:06:46;;;;;;;7.87;5.00;;;;;;;19.21;56.58;97346.14;1769800;80;20900;-76
2021/06/04 08:09:14;;;;;;;6.40;5.80;;;;;;;19.36;56.03;97344.82;1766140;80;20960;-77
2021/06/04 08:11:59;;;;;;;6.75;5.62;;;;;;;19.45;55.96;97346.67;1753158;80;21067;-76
2021/06/04 08:14:26;;;;;;;5.97;5.15;;;;;;;19.43;55.80;97348.72;1746117;82;20994;-76
2021/06/04 08:16:53;;;;;;;5.28;4.75;;;;;;;19.45;55.44;97354.58;1746144;81;20945;-76
2021/06/04 08:19:21;;;;;;;6.85;4.60;;;;;;;19.33;54.51;97344.41;1743305;81;21014;-76
2021/06/04 08:21:50;;;;;;;4.87;4.25;;;;;;;19.21;54.70;97352.22;1745952;81;20956;-77
2021/06/04 08:24:22;;;;;;;8.73;4.58;;;;;;;19.10;54.64;97354.20;1742517;81;20972;-76
2021/06/04 08:26:49;;;;;;;9.13;4.40;;;;;;;19.23;54.56;97350.69;1707578;82;20932;-75
2021/06/04 08:29:15;;;;;;;5.20;3.85;;;;;;;19.13;53.80;97347.19;1745517;81;20971;-76
2021/06/04 08:31:41;;;;;;;5.80;4.25;;;;;;;19.14;54.05;97346.97;1735570;81;21454;-78
2021/06/04 08:34:08;;;;;;;6.67;4.47;;;;;;;19.36;53.88;97338.23;1745263;81;20912;-77
2021/06/04 08:36:36;;;;;;;5.35;4.30;;;;;;;19.46;54.45;97339.05;1744144;81;20963;-78
2021/06/04 08:39:10;;;;;;;5.65;4.33;;;;;;;19.23;55.79;97346.73;1743110;81;20933;-77
2021/06/04 08:41:56;;;;;;;4.85;3.85;;;;;;;19.02;56.03;97343.90;1738901;81;20905;-77
2021/06/04 08:44:56;;;;;;;5.53;3.72;;;;;;;19.24;55.87;97341.25;1739668;81;20987;-77
2021/06/04 08:47:25;;;;;;;5.00;3.55;;;;;;;19.65;55.84;97338.11;1735397;81;20933;-77
2021/06/04 08:50:22;;;;;;;5.22;3.75;;;;;;;20.01;53.65;97339.20;1702838;83;20985;-78
2021/06/04 08:53:02;;;;;;;5.90;3.42;;;;;;;20.31;53.28;97340.63;1698525;84;21000;-78
2021/06/04 08:55:44;;;;;;;3.47;3.17;;;;;;;20.64;51.82;97339.76;1695892;84;21297;-77
2021/06/04 08:59:05;;;;;;;5.37;3.50;;;;;;;20.90;51.37;97340.46;1664998;84;21321;-77
2021/06/04 09:01:48;;;;;;;4.10;3.62;;;;;;;21.17;52.17;97332.98;1657143;84;20964;-75
2021/06/04 09:04:19;;;;;;;5.17;3.85;;;;;;;21.41;53.29;97334.67;1700327;83;20996;-78
2021/06/04 09:06:57;;;;;;;3.58;3.27;;;;;;;21.53;53.13;97334.18;1702741;83;20944;-76
2021/06/04 09:09:58;;;;;;;4.35;3.95;;;;;;;21.61;50.93;97330.38;1742945;81;21004;-78
2021/06/04 09:12:42;;;;;;;4.22;3.83;;;;;;;21.71;50.24;97329.83;1732500;81;20952;-76
2021/06/04 09:15:09;;;;;;;5.15;3.70;;;;;;;21.82;49.04;97331.16;1711481;81;21281;-75
2021/06/04 09:17:59;;;;;;;6.67;3.83;;;;;;;21.95;49.85;97327.97;1728499;81;20939;-76
2021/06/04 09:20:51;;;;;;;4.40;3.60;;;;;;;21.97;50.58;97325.41;1721606;81;20951;-76
2021/06/04 09:23:20;;;;;;;;;;;;;;;22.10;49.72;97327.02;1714775;81;21237;-77
2021/06/04 09:25:48;;;;;;;3.42;3.00;;;;;;;22.26;48.74;97324.18;1727843;81;20118;-76
2021/06/04 09:28:32;;;;;;;3.08;2.77;;;;;;;22.18;47.73;97322.71;1725694;81;20948;-76
2021/06/04 09:31:34;;;;;;;4.17;3.27;;;;;;;22.20;47.63;97326.45;1691756;81;20943;-76
2021/06/04 09:34:31;;;;;;;4.53;3.05;;;;;;;22.27;46.31;97318.65;1720604;81;21247;-77
2021/06/04 09:37:00;;;;;;;5.10;2.92;;;;;;;22.36;47.42;97313.30;1714170;81;20939;-76
2021/06/04 09:39:39;;;;;;;3.62;2.92;;;;;;;22.49;45.38;97307.45;1721982;81;20987;-76
2021/06/04 09:42:28;;;;;;;3.67;3.33;;;;;;;22.53;46.63;97310.72;1723526;81;20955;-80
2021/06/04 09:45:02;;;;;;;5.67;3.25;;;;;;;22.60;48.57;97308.72;1720667;81;21006;-77
2021/06/04 09:47:45;;;;;;;5.25;3.08;;;;;;;22.60;45.59;97309.24;1724804;81;20939;-78
2021/06/04 09:50:40;;;;;;;5.80;3.17;;;;;;;22.65;45.53;97304.87;1720559;81;20954;-78
2021/06/04 09:53:14;;;;;;;4.35;3.17;;;;;;;22.75;46.12;97306.36;1724144;81;20932;-80
2021/06/04 09:55:43;;;;;;;3.85;3.40;;;;;;;22.76;46.08;97308.49;1721875;81;21400;-80
2021/06/04 09:58:18;;;;;;;5.87;2.98;;;;;;;22.78;45.37;97299.81;1728426;81;21036;-79
2021/06/04 10:01:05;;;;;;;6.30;3.27;;;;;;;22.86;45.20;97295.48;1714222;81;21007;-80
2021/06/04 10:03:40;;;;;;;3.85;3.27;;;;;;;22.96;44.82;97300.17;1723207;81;21022;-78
2021/06/04 10:06:26;;;;;;;3.92;2.92;;;;;;;23.03;44.18;97299.48;1721137;81;20982;-79
2021/06/04 10:09:22;;;;;;;6.60;3.33;;;;;;;23.09;45.12;97293.74;1710258;81;21085;-78
2021/06/04 10:12:02;;;;;;;3.83;3.33;;;;;;;23.15;42.64;97290.16;1726129;81;20978;-79
2021/06/04 10:14:56;;;;;;;4.67;3.27;;;;;;;23.12;44.90;97298.06;1729144;80;21091;-79
2021/06/04 10:20:32;;;;;;;3.42;3.08;;;;;;;23.20;43.50;97297.66;1718018;81;20941;-77
2021/06/04 10:23:13;;;;;;;4.60;3.40;;;;;;;23.09;42.97;97301.69;1723680;81;20933;-77
2021/06/04 10:26:05;;;;;;;7.85;5.15;;;;;;;23.05;43.44;97302.70;1708664;81;22307;-77
2021/06/04 10:28:47;;;;;;;25.02;8.85;;;;;;;23.14;43.58;97303.93;1700506;83;20933;-77
2021/06/04 10:31:22;;;;;;;5.45;3.75;;;;;;;23.31;45.46;97299.45;1724559;81;20932;-77
2021/06/04 10:34:21;;;;;;;6.53;3.90;;;;;;;23.45;43.84;97305.77;1723165;81;20925;-78
2021/06/04 10:36:51;;;;;;;4.30;3.52;;;;;;;23.49;43.79;97305.03;1711196;81;20960;-76
2021/06/04 10:39:31;;;;;;;66.87;19.55;;;;;;;23.55;43.89;97297.95;1706803;81;21028;-78
2021/06/04 10:42:34;;;;;;;10.18;5.58;;;;;;;23.44;45.89;97300.18;1720482;81;20954;-77
2021/06/04 10:45:28;;;;;;;6.42;3.83;;;;;;;23.38;43.81;97293.17;1723169;81;21035;-78
2021/06/04 10:48:27;;;;;;;8.65;4.20;;;;;;;23.51;44.36;97291.53;1722956;81;20907;-78
2021/06/04 10:51:15;;;;;;;4.47;3.20;;;;;;;23.60;44.04;97290.13;1716528;81;20968;-79
2021/06/04 10:54:24;;;;;;;3.62;3.33;;;;;;;23.61;45.12;97291.73;1724606;81;20988;-78
2021/06/04 10:57:08;;;;;;;4.92;3.60;;;;;;;23.59;42.69;97297.77;1726015;81;21261;-78
2021/06/04 10:59:49;;;;;;;7.12;4.00;;;;;;;23.61;43.87;97287.22;1726598;81;21055;-77
2021/06/04 11:02:48;;;;;;;4.12;3.42;;;;;;;23.70;43.34;97286.80;1711427;81;21336;-78
2021/06/04 11:05:34;;;;;;;4.55;3.52;;;;;;;23.80;42.11;97292.27;1717963;81;20932;-77
2021/06/04 11:08:17;;;;;;;13.98;6.00;;;;;;;23.85;41.98;97285.17;1725260;81;20948;-78
2021/06/04 11:11:26;;;;;;;5.50;3.52;;;;;;;23.89;44.03;97290.26;1720128;82;21254;-79
2021/06/04 11:14:19;;;;;;;6.00;2.95;;;;;;;23.91;42.31;97290.81;1726690;79;20968;-79
2021/06/04 11:17:03;;;;;;;3.65;3.25;;;;;;;23.91;42.71;97288.16;1765880;80;21092;-79
2021/06/04 11:19:46;;;;;;;4.60;3.12;;;;;;;23.99;40.95;97290.13;1753816;81;20933;-79
2021/06/04 11:22:32;;;;;;;5.70;3.25;;;;;;;23.99;40.73;97278.19;1759987;81;20987;-79
2021/06/04 11:25:13;;;;;;;4.30;2.98;;;;;;;24.00;41.49;97284.58;1762627;80;21095;-78
2021/06/04 11:27:43;;;;;;;4.53;3.27;;;;;;;24.02;42.32;97279.02;1765681;80;20977;-77
2021/06/04 11:30:20;;;;;;;5.15;3.50;;;;;;;24.11;42.27;97274.91;1772089;81;20925;-78
2021/06/04 11:33:11;;;;;;;4.58;3.20;;;;;;;24.13;40.17;97276.78;1767732;81;21079;-78
2021/06/04 11:35:48;;;;;;;5.10;2.95;;;;;;;24.03;40.34;97283.28;1763014;81;20936;-77
2021/06/04 11:38:48;;;;;;;5.40;3.30;;;;;;;23.84;39.43;97272.95;1758819;80;20989;-78
2021/06/04 11:41:23;;;;;;;4.42;3.37;;;;;;;23.73;40.18;97273.84;1770331;80;21222;-79
2021/06/04 11:44:07;;;;;;;5.62;3.67;;;;;;;23.79;40.89;97270.23;1758428;81;21012;-78
2021/06/04 11:46:34;;;;;;;5.35;3.52;;;;;;;23.85;40.58;97268.44;1754163;81;21269;-79
2021/06/04 11:49:12;;;;;;;6.42;3.25;;;;;;;23.92;41.33;97261.12;1763950;80;20960;-79
2021/06/04 11:51:50;;;;;;;4.87;2.92;;;;;;;24.02;42.08;97264.42;1763383;80;20889;-79
2021/06/04 11:54:30;;;;;;;5.58;3.47;;;;;;;23.96;39.65;97259.58;1733679;81;21031;-78
2021/06/04 11:57:06;;;;;;;6.10;3.47;;;;;;;23.98;40.92;97259.33;1765686;80;20994;-77
2021/06/04 11:59:52;;;;;;;3.52;3.12;;;;;;;24.07;41.01;97257.31;1769099;80;21016;-78
2021/06/04 12:02:43;;;;;;;3.92;3.10;;;;;;;24.15;42.13;97258.23;1767480;81;20921;-78
2021/06/04 12:05:20;;;;;;;4.15;3.05;;;;;;;24.10;39.52;97256.05;1758773;80;20970;-78
2021/06/04 12:08:13;;;;;;;3.50;2.92;;;;;;;24.09;41.19;97253.11;1770026;80;21020;-77